sensor_id;sensor_type;location;lat;lon;timestamp;pressure;altitude;pressure_sealevel;temperature;humidity
70254;BME280;57649;42.968;1.608;2023-01-05T00:01:42;98892.06;;;2.57;85.30
70254;BME280;57649;42.968;1.608;2023-01-05T00:04:08;98900.53;;;2.46;86.60
70254;BME280;57649;42.968;1.608;2023-01-05T00:06:34;98888.78;;;2.52;87.10
70254;BME280;57649;42.968;1.608;2023-01-05T00:09:02;98887.88;;;2.53;87.92
70254;BME280;57649;42.968;1.608;2023-01-05T00:11:27;98888.47;;;2.58;86.81
70254;BME280;57649;42.968;1.608;2023-01-05T00:14:17;98874.56;;;2.55;87.09
70254;BME280;57649;42.968;1.608;2023-01-05T00:17:02;98878.38;;;2.49;87.44
70254;BME280;57649;42.968;1.608;2023-01-05T00:19:46;98874.03;;;2.48;87.29
70254;BME280;57649;42.968;1.608;2023-01-05T00:22:32;98871.41;;;2.48;86.69
70254;BME280;57649;42.968;1.608;2023-01-05T00:25:07;98865.06;;;2.35;87.07
70254;BME280;57649;42.968;1.608;2023-01-05T00:27:33;98877.53;;;2.48;86.84
70254;BME280;57649;42.968;1.608;2023-01-05T00:29:59;98868.69;;;2.49;87.16
70254;BME280;57649;42.968;1.608;2023-01-05T00:32:25;98866.81;;;2.52;86.90
70254;BME280;57649;42.968;1.608;2023-01-05T00:34:53;98856.38;;;2.48;86.95
70254;BME280;57649;42.968;1.608;2023-01-05T00:37:24;98853.81;;;2.47;86.99
70254;BME280;57649;42.968;1.608;2023-01-05T00:39:50;98858.34;;;2.45;87.49
70254;BME280;57649;42.968;1.608;2023-01-05T00:42:15;98851.44;;;2.58;86.40
70254;BME280;57649;42.968;1.608;2023-01-05T00:44:41;98849.34;;;2.65;86.77
70254;BME280;57649;42.968;1.608;2023-01-05T00:47:06;98846.44;;;2.69;86.38
70254;BME280;57649;42.968;1.608;2023-01-05T00:49:32;98849.34;;;2.65;86.54
70254;BME280;57649;42.968;1.608;2023-01-05T00:51:57;98852.63;;;2.53;85.60
70254;BME280;57649;42.968;1.608;2023-01-05T00:54:23;98844.31;;;2.60;85.88
70254;BME280;57649;42.968;1.608;2023-01-05T00:56:48;98853.09;;;2.61;85.88
70254;BME280;57649;42.968;1.608;2023-01-05T00:59:15;98840.88;;;2.58;85.39
70254;BME280;57649;42.968;1.608;2023-01-05T01:01:41;98842.06;;;2.53;86.61
70254;BME280;57649;42.968;1.608;2023-01-05T01:04:09;98839.34;;;2.54;86.56
70254;BME280;57649;42.968;1.608;2023-01-05T01:06:34;98843.94;;;2.50;86.74
70254;BME280;57649;42.968;1.608;2023-01-05T01:09:00;98837.19;;;2.45;86.44
70254;BME280;57649;42.968;1.608;2023-01-05T01:11:25;98843.28;;;2.29;87.52
70254;BME280;57649;42.968;1.608;2023-01-05T01:13:50;98850.59;;;2.24;87.60
70254;BME280;57649;42.968;1.608;2023-01-05T01:16:16;98841.41;;;2.31;87.35
70254;BME280;57649;42.968;1.608;2023-01-05T01:18:41;98830.00;;;2.31;86.57
70254;BME280;57649;42.968;1.608;2023-01-05T01:21:07;98839.31;;;2.38;85.69
70254;BME280;57649;42.968;1.608;2023-01-05T01:23:32;98830.84;;;2.31;86.58
70254;BME280;57649;42.968;1.608;2023-01-05T01:26:09;98825.22;;;2.22;86.26
70254;BME280;57649;42.968;1.608;2023-01-05T01:28:35;98826.97;;;2.21;86.59
70254;BME280;57649;42.968;1.608;2023-01-05T01:31:01;98828.63;;;2.40;85.31
70254;BME280;57649;42.968;1.608;2023-01-05T01:33:27;98817.91;;;2.43;85.32
70254;BME280;57649;42.968;1.608;2023-01-05T01:35:53;98823.19;;;2.43;85.47
70254;BME280;57649;42.968;1.608;2023-01-05T01:38:18;98816.41;;;2.55;84.04
70254;BME280;57649;42.968;1.608;2023-01-05T01:40:45;98820.75;;;2.56;84.24
70254;BME280;57649;42.968;1.608;2023-01-05T01:43:38;98830.91;;;2.47;85.14
70254;BME280;57649;42.968;1.608;2023-01-05T01:46:04;98829.44;;;2.58;84.57
70254;BME280;57649;42.968;1.608;2023-01-05T01:48:30;98831.91;;;2.45;85.24
70254;BME280;57649;42.968;1.608;2023-01-05T01:50:58;98829.34;;;2.43;85.70
70254;BME280;57649;42.968;1.608;2023-01-05T01:53:30;98827.09;;;2.36;85.46
70254;BME280;57649;42.968;1.608;2023-01-05T01:55:59;98823.00;;;2.30;85.74
70254;BME280;57649;42.968;1.608;2023-01-05T01:58:29;98825.41;;;2.35;85.20
70254;BME280;57649;42.968;1.608;2023-01-05T02:00:57;98823.78;;;2.32;86.06
70254;BME280;57649;42.968;1.608;2023-01-05T02:03:24;98819.09;;;2.37;85.87
70254;BME280;57649;42.968;1.608;2023-01-05T02:05:50;98821.91;;;2.34;86.10
70254;BME280;57649;42.968;1.608;2023-01-05T02:08:15;98823.78;;;2.32;86.98
70254;BME280;57649;42.968;1.608;2023-01-05T02:21:46;98817.69;;;2.47;86.02
70254;BME280;57649;42.968;1.608;2023-01-05T02:24:44;98812.56;;;2.44;85.71
70254;BME280;57649;42.968;1.608;2023-01-05T02:30:53;98813.03;;;2.35;86.29
70254;BME280;57649;42.968;1.608;2023-01-05T02:36:41;98804.38;;;2.16;87.63
70254;BME280;57649;42.968;1.608;2023-01-05T02:39:12;98804.56;;;2.28;87.70
70254;BME280;57649;42.968;1.608;2023-01-05T02:44:09;98792.09;;;2.48;85.33
70254;BME280;57649;42.968;1.608;2023-01-05T02:46:35;98789.38;;;2.49;85.28
70254;BME280;57649;42.968;1.608;2023-01-05T02:49:01;98780.41;;;2.52;85.38
70254;BME280;57649;42.968;1.608;2023-01-05T02:51:50;98783.06;;;2.52;85.49
70254;BME280;57649;42.968;1.608;2023-01-05T02:54:35;98784.06;;;2.34;86.06
70254;BME280;57649;42.968;1.608;2023-01-05T02:57:12;98774.66;;;2.28;86.57
70254;BME280;57649;42.968;1.608;2023-01-05T02:59:43;98776.00;;;2.19;86.70
70254;BME280;57649;42.968;1.608;2023-01-05T03:02:17;98774.06;;;2.23;86.59
70254;BME280;57649;42.968;1.608;2023-01-05T03:04:47;98767.78;;;2.25;86.52
70254;BME280;57649;42.968;1.608;2023-01-05T03:07:19;98769.81;;;2.36;86.18
70254;BME280;57649;42.968;1.608;2023-01-05T03:09:48;98761.19;;;2.17;86.79
70254;BME280;57649;42.968;1.608;2023-01-05T03:12:27;98760.69;;;2.26;86.50
70254;BME280;57649;42.968;1.608;2023-01-05T03:15:27;98759.31;;;2.19;86.62
70254;BME280;57649;42.968;1.608;2023-01-05T03:17:57;98757.94;;;2.11;87.45
70254;BME280;57649;42.968;1.608;2023-01-05T03:20:24;98754.88;;;2.19;86.85
70254;BME280;57649;42.968;1.608;2023-01-05T03:22:52;98752.16;;;2.21;86.93
70254;BME280;57649;42.968;1.608;2023-01-05T03:25:38;98743.44;;;2.19;86.22
70254;BME280;57649;42.968;1.608;2023-01-05T03:28:26;98743.66;;;2.31;85.86
70254;BME280;57649;42.968;1.608;2023-01-05T03:31:27;98740.41;;;2.26;86.22
70254;BME280;57649;42.968;1.608;2023-01-05T03:37:28;98738.00;;;2.38;85.06
70254;BME280;57649;42.968;1.608;2023-01-05T03:39:58;98732.81;;;2.36;85.67
70254;BME280;57649;42.968;1.608;2023-01-05T03:42:25;98734.53;;;2.37;85.25
70254;BME280;57649;42.968;1.608;2023-01-05T03:44:53;98741.94;;;2.46;85.43
70254;BME280;57649;42.968;1.608;2023-01-05T03:47:18;98731.53;;;2.43;84.74
70254;BME280;57649;42.968;1.608;2023-01-05T03:49:44;98727.53;;;2.36;85.28
70254;BME280;57649;42.968;1.608;2023-01-05T03:52:09;98730.66;;;2.27;85.15
70254;BME280;57649;42.968;1.608;2023-01-05T03:54:34;98730.34;;;2.33;84.58
70254;BME280;57649;42.968;1.608;2023-01-05T03:57:00;98720.78;;;2.30;85.07
70254;BME280;57649;42.968;1.608;2023-01-05T03:59:25;98725.75;;;2.37;85.54
70254;BME280;57649;42.968;1.608;2023-01-05T04:01:51;98727.63;;;2.50;84.74
70254;BME280;57649;42.968;1.608;2023-01-05T04:04:16;98711.69;;;2.52;84.04
70254;BME280;57649;42.968;1.608;2023-01-05T04:06:41;98719.53;;;2.54;84.08
70254;BME280;57649;42.968;1.608;2023-01-05T04:09:07;98722.53;;;2.47;84.11
70254;BME280;57649;42.968;1.608;2023-01-05T04:11:32;98722.00;;;2.41;84.46
70254;BME280;57649;42.968;1.608;2023-01-05T04:13:58;98719.78;;;2.33;84.76
70254;BME280;57649;42.968;1.608;2023-01-05T04:16:23;98720.63;;;2.34;85.55
70254;BME280;57649;42.968;1.608;2023-01-05T04:18:49;98715.00;;;2.40;85.56
70254;BME280;57649;42.968;1.608;2023-01-05T04:21:14;98722.59;;;2.46;85.07
70254;BME280;57649;42.968;1.608;2023-01-05T04:23:40;98721.81;;;2.28;86.10
70254;BME280;57649;42.968;1.608;2023-01-05T04:26:06;98722.50;;;2.31;85.15
70254;BME280;57649;42.968;1.608;2023-01-05T04:28:31;98721.31;;;2.37;84.60
70254;BME280;57649;42.968;1.608;2023-01-05T04:30:57;98729.84;;;2.42;84.79
70254;BME280;57649;42.968;1.608;2023-01-05T04:33:23;98728.81;;;2.45;84.70
70254;BME280;57649;42.968;1.608;2023-01-05T04:35:49;98720.81;;;2.46;83.85
70254;BME280;57649;42.968;1.608;2023-01-05T04:38:14;98708.03;;;2.55;84.33
70254;BME280;57649;42.968;1.608;2023-01-05T04:40:40;98707.84;;;2.42;84.73
70254;BME280;57649;42.968;1.608;2023-01-05T04:43:06;98720.97;;;2.43;85.07
70254;BME280;57649;42.968;1.608;2023-01-05T04:45:32;98728.38;;;2.53;84.80
70254;BME280;57649;42.968;1.608;2023-01-05T04:47:58;98718.00;;;2.49;84.51
70254;BME280;57649;42.968;1.608;2023-01-05T04:50:24;98718.31;;;2.59;83.80
70254;BME280;57649;42.968;1.608;2023-01-05T04:52:50;98707.16;;;2.54;83.32
70254;BME280;57649;42.968;1.608;2023-01-05T04:55:15;98707.00;;;2.57;84.04
70254;BME280;57649;42.968;1.608;2023-01-05T04:57:41;98695.81;;;2.68;82.96
70254;BME280;57649;42.968;1.608;2023-01-05T05:00:07;98705.44;;;2.69;82.97
70254;BME280;57649;42.968;1.608;2023-01-05T05:02:33;98705.44;;;2.85;82.52
70254;BME280;57649;42.968;1.608;2023-01-05T05:04:59;98711.56;;;2.85;82.71
70254;BME280;57649;42.968;1.608;2023-01-05T05:07:24;98709.88;;;2.84;82.50
70254;BME280;57649;42.968;1.608;2023-01-05T05:09:50;98709.69;;;2.87;82.74
70254;BME280;57649;42.968;1.608;2023-01-05T05:12:15;98705.94;;;2.92;82.59
70254;BME280;57649;42.968;1.608;2023-01-05T05:14:47;98711.31;;;2.90;83.04
70254;BME280;57649;42.968;1.608;2023-01-05T05:17:14;98707.63;;;2.93;82.58
70254;BME280;57649;42.968;1.608;2023-01-05T05:19:39;98717.19;;;2.95;82.65
70254;BME280;57649;42.968;1.608;2023-01-05T05:22:05;98704.53;;;3.00;82.40
70254;BME280;57649;42.968;1.608;2023-01-05T05:24:30;98704.81;;;2.96;83.23
70254;BME280;57649;42.968;1.608;2023-01-05T05:26:56;98706.00;;;3.06;83.14
70254;BME280;57649;42.968;1.608;2023-01-05T05:29:22;98708.78;;;3.19;82.00
70254;BME280;57649;42.968;1.608;2023-01-05T05:31:48;98704.78;;;3.12;82.12
70254;BME280;57649;42.968;1.608;2023-01-05T05:34:13;98707.69;;;3.07;82.21
70254;BME280;57649;42.968;1.608;2023-01-05T05:36:39;98699.50;;;3.12;82.69
70254;BME280;57649;42.968;1.608;2023-01-05T05:39:04;98698.81;;;3.08;82.18
70254;BME280;57649;42.968;1.608;2023-01-05T05:41:30;98694.28;;;3.10;81.72
70254;BME280;57649;42.968;1.608;2023-01-05T05:43:55;98698.19;;;3.19;81.64
70254;BME280;57649;42.968;1.608;2023-01-05T05:46:28;98694.09;;;3.13;81.52
70254;BME280;57649;42.968;1.608;2023-01-05T05:48:54;98690.59;;;3.13;81.67
70254;BME280;57649;42.968;1.608;2023-01-05T05:51:20;98690.13;;;3.20;81.20
70254;BME280;57649;42.968;1.608;2023-01-05T05:53:45;98693.91;;;3.16;81.59
70254;BME280;57649;42.968;1.608;2023-01-05T05:56:11;98699.13;;;3.18;80.94
70254;BME280;57649;42.968;1.608;2023-01-05T05:58:36;98690.47;;;3.30;80.13
70254;BME280;57649;42.968;1.608;2023-01-05T06:01:02;98687.81;;;3.30;80.29
70254;BME280;57649;42.968;1.608;2023-01-05T06:03:27;98681.22;;;3.37;80.02
70254;BME280;57649;42.968;1.608;2023-01-05T06:05:53;98700.31;;;3.42;79.94
70254;BME280;57649;42.968;1.608;2023-01-05T06:08:18;98698.13;;;3.35;80.05
70254;BME280;57649;42.968;1.608;2023-01-05T06:10:43;98705.22;;;3.34;80.36
70254;BME280;57649;42.968;1.608;2023-01-05T06:13:09;98704.38;;;3.34;80.29
70254;BME280;57649;42.968;1.608;2023-01-05T06:15:34;98695.00;;;3.28;80.47
70254;BME280;57649;42.968;1.608;2023-01-05T06:18:00;98694.72;;;3.33;80.52
70254;BME280;57649;42.968;1.608;2023-01-05T06:20:25;98694.25;;;3.40;79.97
70254;BME280;57649;42.968;1.608;2023-01-05T06:22:50;98690.38;;;3.46;79.96
70254;BME280;57649;42.968;1.608;2023-01-05T06:25:16;98694.94;;;3.44;79.95
70254;BME280;57649;42.968;1.608;2023-01-05T06:27:41;98695.13;;;3.41;79.84
70254;BME280;57649;42.968;1.608;2023-01-05T06:30:07;98697.22;;;3.50;79.85
70254;BME280;57649;42.968;1.608;2023-01-05T06:32:33;98697.34;;;3.63;79.57
70254;BME280;57649;42.968;1.608;2023-01-05T06:34:58;98687.41;;;3.52;79.35
70254;BME280;57649;42.968;1.608;2023-01-05T06:37:23;98694.69;;;3.63;79.22
70254;BME280;57649;42.968;1.608;2023-01-05T06:39:49;98690.03;;;3.52;78.92
70254;BME280;57649;42.968;1.608;2023-01-05T06:42:14;98694.78;;;3.61;78.96
70254;BME280;57649;42.968;1.608;2023-01-05T06:44:40;98696.59;;;3.61;78.70
70254;BME280;57649;42.968;1.608;2023-01-05T06:47:06;98684.75;;;3.52;78.76
70254;BME280;57649;42.968;1.608;2023-01-05T06:49:32;98682.22;;;3.65;78.16
70254;BME280;57649;42.968;1.608;2023-01-05T06:51:57;98689.47;;;3.61;78.70
70254;BME280;57649;42.968;1.608;2023-01-05T06:54:23;98687.28;;;3.68;78.39
70254;BME280;57649;42.968;1.608;2023-01-05T06:56:48;98676.63;;;3.70;77.86
70254;BME280;57649;42.968;1.608;2023-01-05T06:59:14;98678.03;;;3.75;78.06
70254;BME280;57649;42.968;1.608;2023-01-05T07:01:39;98678.69;;;3.79;78.10
70254;BME280;57649;42.968;1.608;2023-01-05T07:04:05;98671.97;;;3.73;77.63
70254;BME280;57649;42.968;1.608;2023-01-05T07:06:30;98667.56;;;3.74;77.62
70254;BME280;57649;42.968;1.608;2023-01-05T07:08:56;98672.66;;;3.77;77.78
70254;BME280;57649;42.968;1.608;2023-01-05T07:11:21;98658.47;;;3.78;77.07
70254;BME280;57649;42.968;1.608;2023-01-05T07:13:48;98667.66;;;3.87;77.07
70254;BME280;57649;42.968;1.608;2023-01-05T07:16:15;98664.44;;;3.81;77.30
70254;BME280;57649;42.968;1.608;2023-01-05T07:18:40;98657.72;;;3.90;77.35
70254;BME280;57649;42.968;1.608;2023-01-05T07:21:06;98663.94;;;3.89;76.66
70254;BME280;57649;42.968;1.608;2023-01-05T07:23:31;98659.31;;;3.93;77.06
70254;BME280;57649;42.968;1.608;2023-01-05T07:25:59;98655.91;;;3.91;76.68
70254;BME280;57649;42.968;1.608;2023-01-05T07:28:25;98659.59;;;3.88;76.90
70254;BME280;57649;42.968;1.608;2023-01-05T07:30:51;98658.66;;;3.89;76.99
70254;BME280;57649;42.968;1.608;2023-01-05T07:33:17;98669.16;;;3.91;77.59
70254;BME280;57649;42.968;1.608;2023-01-05T07:35:43;98661.78;;;3.96;76.44
70254;BME280;57649;42.968;1.608;2023-01-05T07:38:08;98680.03;;;4.00;75.70
70254;BME280;57649;42.968;1.608;2023-01-05T07:40:34;98671.25;;;4.00;76.50
70254;BME280;57649;42.968;1.608;2023-01-05T07:43:00;98672.38;;;3.96;76.93
70254;BME280;57649;42.968;1.608;2023-01-05T07:45:25;98668.59;;;4.00;76.10
70254;BME280;57649;42.968;1.608;2023-01-05T07:47:51;98663.47;;;3.97;76.98
70254;BME280;57649;42.968;1.608;2023-01-05T07:50:16;98667.75;;;3.99;75.87
70254;BME280;57649;42.968;1.608;2023-01-05T07:52:42;98664.53;;;3.94;76.62
70254;BME280;57649;42.968;1.608;2023-01-05T07:55:07;98673.69;;;4.03;76.05
70254;BME280;57649;42.968;1.608;2023-01-05T07:57:33;98664.69;;;4.05;76.18
70254;BME280;57649;42.968;1.608;2023-01-05T07:59:58;98659.97;;;3.96;76.41
70254;BME280;57649;42.968;1.608;2023-01-05T08:02:24;98655.44;;;3.98;75.96
70254;BME280;57649;42.968;1.608;2023-01-05T08:04:51;98657.91;;;3.87;76.47
70254;BME280;57649;42.968;1.608;2023-01-05T08:07:17;98667.34;;;3.91;76.70
70254;BME280;57649;42.968;1.608;2023-01-05T08:09:43;98657.50;;;3.93;76.83
70254;BME280;57649;42.968;1.608;2023-01-05T08:12:27;98656.28;;;3.84;76.98
70254;BME280;57649;42.968;1.608;2023-01-05T08:14:53;98656.97;;;3.74;77.23
70254;BME280;57649;42.968;1.608;2023-01-05T08:17:19;98661.47;;;3.86;76.89
70254;BME280;57649;42.968;1.608;2023-01-05T08:19:44;98666.28;;;3.94;76.72
70254;BME280;57649;42.968;1.608;2023-01-05T08:22:10;98669.59;;;3.97;76.39
70254;BME280;57649;42.968;1.608;2023-01-05T08:24:35;98670.00;;;4.05;76.62
70254;BME280;57649;42.968;1.608;2023-01-05T08:27:01;98661.38;;;4.02;76.88
70254;BME280;57649;42.968;1.608;2023-01-05T08:29:27;98670.47;;;4.12;76.49
70254;BME280;57649;42.968;1.608;2023-01-05T08:31:52;98660.34;;;4.04;76.78
70254;BME280;57649;42.968;1.608;2023-01-05T08:34:18;98662.63;;;4.11;75.27
70254;BME280;57649;42.968;1.608;2023-01-05T08:36:43;98667.44;;;4.18;75.98
70254;BME280;57649;42.968;1.608;2023-01-05T08:39:09;98671.00;;;4.32;74.88
70254;BME280;57649;42.968;1.608;2023-01-05T08:41:36;98672.63;;;4.34;75.11
70254;BME280;57649;42.968;1.608;2023-01-05T08:44:05;98672.03;;;4.43;75.04
70254;BME280;57649;42.968;1.608;2023-01-05T08:46:32;98666.81;;;4.42;75.17
70254;BME280;57649;42.968;1.608;2023-01-05T08:49:00;98673.72;;;4.44;75.21
70254;BME280;57649;42.968;1.608;2023-01-05T08:51:26;98661.41;;;4.43;75.37
70254;BME280;57649;42.968;1.608;2023-01-05T08:53:52;98668.47;;;4.57;75.17
70254;BME280;57649;42.968;1.608;2023-01-05T08:56:18;98670.84;;;4.62;74.81
70254;BME280;57649;42.968;1.608;2023-01-05T08:58:44;98670.94;;;4.60;74.94
70254;BME280;57649;42.968;1.608;2023-01-05T09:01:12;98668.34;;;4.73;74.58
70254;BME280;57649;42.968;1.608;2023-01-05T09:03:38;98674.06;;;4.67;74.63
70254;BME280;57649;42.968;1.608;2023-01-05T09:06:04;98665.34;;;4.78;74.48
70254;BME280;57649;42.968;1.608;2023-01-05T09:08:31;98668.31;;;5.00;74.16
70254;BME280;57649;42.968;1.608;2023-01-05T09:11:18;98659.25;;;4.90;73.54
70254;BME280;57649;42.968;1.608;2023-01-05T09:13:49;98666.00;;;5.09;72.62
70254;BME280;57649;42.968;1.608;2023-01-05T09:16:17;98667.25;;;5.03;73.82
70254;BME280;57649;42.968;1.608;2023-01-05T09:18:44;98667.84;;;5.21;73.19
70254;BME280;57649;42.968;1.608;2023-01-05T09:21:10;98670.06;;;5.27;71.88
70254;BME280;57649;42.968;1.608;2023-01-05T09:23:37;98661.06;;;5.30;71.79
70254;BME280;57649;42.968;1.608;2023-01-05T09:26:04;98657.22;;;5.21;72.61
70254;BME280;57649;42.968;1.608;2023-01-05T09:28:30;98669.13;;;5.28;71.88
70254;BME280;57649;42.968;1.608;2023-01-05T09:30:57;98663.06;;;5.26;71.86
70254;BME280;57649;42.968;1.608;2023-01-05T09:33:22;98663.28;;;5.36;71.91
70254;BME280;57649;42.968;1.608;2023-01-05T09:35:55;98665.31;;;5.45;72.06
70254;BME280;57649;42.968;1.608;2023-01-05T09:38:22;98666.38;;;5.55;72.25
70254;BME280;57649;42.968;1.608;2023-01-05T09:40:49;98664.38;;;5.59;71.66
70254;BME280;57649;42.968;1.608;2023-01-05T09:43:27;98665.31;;;5.58;71.72
70254;BME280;57649;42.968;1.608;2023-01-05T09:45:55;98665.13;;;5.61;71.38
70254;BME280;57649;42.968;1.608;2023-01-05T09:48:22;98657.25;;;5.59;71.75
70254;BME280;57649;42.968;1.608;2023-01-05T09:50:49;98662.66;;;5.71;70.81
70254;BME280;57649;42.968;1.608;2023-01-05T09:53:27;98662.34;;;5.88;70.30
70254;BME280;57649;42.968;1.608;2023-01-05T09:55:53;98661.28;;;6.04;70.33
70254;BME280;57649;42.968;1.608;2023-01-05T09:58:28;98670.34;;;6.01;69.94
70254;BME280;57649;42.968;1.608;2023-01-05T10:01:03;98667.66;;;6.14;69.89
70254;BME280;57649;42.968;1.608;2023-01-05T10:03:30;98663.75;;;6.07;70.49
70254;BME280;57649;42.968;1.608;2023-01-05T10:05:57;98669.59;;;5.99;69.97
70254;BME280;57649;42.968;1.608;2023-01-05T10:08:43;98661.16;;;6.18;70.03
70254;BME280;57649;42.968;1.608;2023-01-05T10:11:15;98663.41;;;6.11;69.76
70254;BME280;57649;42.968;1.608;2023-01-05T10:14:03;98661.91;;;6.20;70.22
70254;BME280;57649;42.968;1.608;2023-01-05T10:16:29;98652.00;;;6.22;70.28
70254;BME280;57649;42.968;1.608;2023-01-05T10:18:56;98648.25;;;6.38;69.15
70254;BME280;57649;42.968;1.608;2023-01-05T10:21:57;98651.81;;;6.49;69.94
70254;BME280;57649;42.968;1.608;2023-01-05T10:24:56;98644.69;;;6.50;69.37
70254;BME280;57649;42.968;1.608;2023-01-05T10:27:30;98642.31;;;6.58;68.73
70254;BME280;57649;42.968;1.608;2023-01-05T10:30:09;98635.69;;;6.64;68.44
70254;BME280;57649;42.968;1.608;2023-01-05T10:35:38;98627.44;;;6.80;68.69
70254;BME280;57649;42.968;1.608;2023-01-05T10:38:26;98624.63;;;6.81;69.42
70254;BME280;57649;42.968;1.608;2023-01-05T10:41:17;98613.84;;;6.71;69.22
70254;BME280;57649;42.968;1.608;2023-01-05T10:44:20;98621.41;;;6.89;68.99
70254;BME280;57649;42.968;1.608;2023-01-05T10:46:46;98614.72;;;7.07;68.32
70254;BME280;57649;42.968;1.608;2023-01-05T10:49:18;98600.91;;;7.13;68.33
70254;BME280;57649;42.968;1.608;2023-01-05T10:51:45;98598.28;;;7.25;68.54
70254;BME280;57649;42.968;1.608;2023-01-05T10:54:25;98605.44;;;7.24;68.75
70254;BME280;57649;42.968;1.608;2023-01-05T10:56:54;98584.00;;;7.26;69.18
70254;BME280;57649;42.968;1.608;2023-01-05T10:59:19;98584.00;;;7.37;69.20
70254;BME280;57649;42.968;1.608;2023-01-05T11:01:46;98583.91;;;7.50;68.48
70254;BME280;57649;42.968;1.608;2023-01-05T11:04:18;98573.38;;;7.60;68.06
70254;BME280;57649;42.968;1.608;2023-01-05T11:06:45;98580.41;;;7.72;68.12
70254;BME280;57649;42.968;1.608;2023-01-05T11:11:36;98560.22;;;8.13;65.91
70254;BME280;57649;42.968;1.608;2023-01-05T11:14:04;98551.03;;;8.17;66.48
70254;BME280;57649;42.968;1.608;2023-01-05T11:16:32;98556.94;;;8.32;65.92
70254;BME280;57649;42.968;1.608;2023-01-05T11:19:03;98544.78;;;8.83;63.37
70254;BME280;57649;42.968;1.608;2023-01-05T11:24:01;98529.41;;;9.89;59.98
70254;BME280;57649;42.968;1.608;2023-01-05T11:26:33;98514.13;;;10.20;58.98
70254;BME280;57649;42.968;1.608;2023-01-05T11:31:38;98511.44;;;10.20;59.19
70254;BME280;57649;42.968;1.608;2023-01-05T11:34:26;98496.03;;;10.43;58.41
70254;BME280;57649;42.968;1.608;2023-01-05T11:39:27;98489.38;;;10.86;57.50
70254;BME280;57649;42.968;1.608;2023-01-05T11:42:10;98481.63;;;10.83;56.33
70254;BME280;57649;42.968;1.608;2023-01-05T11:44:36;98482.88;;;10.89;56.87
70254;BME280;57649;42.968;1.608;2023-01-05T11:47:04;98483.44;;;10.92;56.87
70254;BME280;57649;42.968;1.608;2023-01-05T11:49:30;98478.78;;;10.94;57.18
70254;BME280;57649;42.968;1.608;2023-01-05T11:51:56;98476.81;;;10.96;56.94
70254;BME280;57649;42.968;1.608;2023-01-05T11:54:32;98467.09;;;10.95;56.46
70254;BME280;57649;42.968;1.608;2023-01-05T11:59:36;98457.38;;;10.85;57.20
70254;BME280;57649;42.968;1.608;2023-01-05T12:02:43;98454.16;;;10.81;57.10
70254;BME280;57649;42.968;1.608;2023-01-05T12:08:09;98431.59;;;10.74;58.46
70254;BME280;57649;42.968;1.608;2023-01-05T12:10:58;98435.13;;;10.74;59.23
70254;BME280;57649;42.968;1.608;2023-01-05T12:21:44;98409.31;;;10.83;59.32
70254;BME280;57649;42.968;1.608;2023-01-05T12:27:24;98388.91;;;11.10;58.19
70254;BME280;57649;42.968;1.608;2023-01-05T12:30:35;98385.03;;;11.22;58.29
70254;BME280;57649;42.968;1.608;2023-01-05T12:36:22;98373.75;;;11.28;58.06
70254;BME280;57649;42.968;1.608;2023-01-05T12:50:33;98361.59;;;11.52;60.16
70254;BME280;57649;42.968;1.608;2023-01-05T12:56:00;98347.38;;;11.69;60.83
70254;BME280;57649;42.968;1.608;2023-01-05T12:58:37;98343.63;;;11.80;61.51
70254;BME280;57649;42.968;1.608;2023-01-05T13:01:07;98342.03;;;11.87;62.01
70254;BME280;57649;42.968;1.608;2023-01-05T13:03:44;98340.13;;;11.80;61.67
70254;BME280;57649;42.968;1.608;2023-01-05T13:06:16;98338.34;;;12.06;61.66
70254;BME280;57649;42.968;1.608;2023-01-05T13:08:48;98333.38;;;12.11;61.86
70254;BME280;57649;42.968;1.608;2023-01-05T13:11:24;98336.22;;;11.92;61.42
70254;BME280;57649;42.968;1.608;2023-01-05T13:14:04;98333.63;;;12.00;62.04
70254;BME280;57649;42.968;1.608;2023-01-05T13:16:33;98322.56;;;12.03;61.33
70254;BME280;57649;42.968;1.608;2023-01-05T13:19:04;98324.56;;;12.01;61.83
70254;BME280;57649;42.968;1.608;2023-01-05T13:21:35;98322.75;;;12.02;61.71
70254;BME280;57649;42.968;1.608;2023-01-05T13:24:10;98314.44;;;12.13;61.80
70254;BME280;57649;42.968;1.608;2023-01-05T13:26:37;98309.81;;;12.23;61.35
70254;BME280;57649;42.968;1.608;2023-01-05T13:29:02;98312.06;;;12.36;61.12
70254;BME280;57649;42.968;1.608;2023-01-05T13:34:15;98305.41;;;12.40;61.33
70254;BME280;57649;42.968;1.608;2023-01-05T13:45:07;98297.16;;;12.42;62.09
70254;BME280;57649;42.968;1.608;2023-01-05T13:50:29;98289.03;;;12.25;61.21
70254;BME280;57649;42.968;1.608;2023-01-05T13:55:38;98280.75;;;12.19;61.64
70254;BME280;57649;42.968;1.608;2023-01-05T13:58:30;98279.81;;;12.28;61.08
70254;BME280;57649;42.968;1.608;2023-01-05T14:00:56;98276.75;;;12.23;61.34
70254;BME280;57649;42.968;1.608;2023-01-05T14:03:34;98273.69;;;12.18;62.19
70254;BME280;57649;42.968;1.608;2023-01-05T14:06:04;98281.47;;;12.29;61.72
70254;BME280;57649;42.968;1.608;2023-01-05T14:08:38;98287.50;;;12.23;62.13
70254;BME280;57649;42.968;1.608;2023-01-05T14:14:23;98283.69;;;12.07;62.71
70254;BME280;57649;42.968;1.608;2023-01-05T14:27:00;98283.69;;;11.71;63.10
70254;BME280;57649;42.968;1.608;2023-01-05T14:32:27;98274.56;;;11.46;64.76
70254;BME280;57649;42.968;1.608;2023-01-05T14:37:39;98284.91;;;11.23;66.05
70254;BME280;57649;42.968;1.608;2023-01-05T14:40:47;98278.13;;;11.19;66.00
70254;BME280;57649;42.968;1.608;2023-01-05T14:43:21;98276.81;;;11.05;67.16
70254;BME280;57649;42.968;1.608;2023-01-05T14:46:02;98274.63;;;10.91;67.15
70254;BME280;57649;42.968;1.608;2023-01-05T14:49:18;98278.34;;;11.08;66.69
70254;BME280;57649;42.968;1.608;2023-01-05T14:51:21;98278.03;;;11.11;66.13
70254;BME280;57649;42.968;1.608;2023-01-05T14:53:52;98270.63;;;11.05;66.78
70254;BME280;57649;42.968;1.608;2023-01-05T14:56:24;98277.31;;;10.91;67.17
70254;BME280;57649;42.968;1.608;2023-01-05T14:59:22;98275.94;;;10.87;67.06
70254;BME280;57649;42.968;1.608;2023-01-05T15:01:59;98265.91;;;10.89;67.57
70254;BME280;57649;42.968;1.608;2023-01-05T15:04:29;98267.75;;;10.88;67.61
70254;BME280;57649;42.968;1.608;2023-01-05T15:09:46;98265.94;;;11.07;66.80
70254;BME280;57649;42.968;1.608;2023-01-05T15:31:52;98250.53;;;10.91;67.61
70254;BME280;57649;42.968;1.608;2023-01-05T15:34:29;98247.41;;;10.95;67.83